La rose des vents
Donnes mto: Semaine 14/04/08 - 20/04/08 (S 16)
Date Horaire Temp. E. Hum. E. P.atmo. Pluie Vent 1mn Direction Ensoleilleme Ev.Tr. Solaire P. de rose Temp au vent Rafales
14/04/2008 00:00 9,0 C 82 % 1016,2 hPa 0,0 l/m 7,2 km/h (2 Bft) O-NO 0,00 h 0,025 mm 0 W/m 6,1 C 8,0 C 9,2 km/h (2 Bft)
14/04/2008 01:00 8,2 C 82 % 1016,1 hPa 0,0 l/m 4,0 km/h (1 Bft) O 0,00 h 0,025 mm 0 W/m 5,4 C 7,8 C 5,5 km/h (1 Bft)
14/04/2008 02:00 7,7 C 82 % 1015,6 hPa 0,0 l/m 4,7 km/h (1 Bft) NO 0,00 h 0,025 mm 0 W/m 4,8 C 7,2 C 6,5 km/h (2 Bft)
14/04/2008 03:00 7,7 C 82 % 1015,1 hPa 0,0 l/m 1,8 km/h (1 Bft) NO 0,00 h 0,025 mm 0 W/m 4,8 C 7,6 C 2,9 km/h (1 Bft)
14/04/2008 04:00 7,8 C 82 % 1014,6 hPa 0,0 l/m 1,0 km/h (0 Bft) NO 0,00 h 0,025 mm 0 W/m 4,9 C 7,8 C 1,7 km/h (1 Bft)
14/04/2008 05:00 7,8 C 81 % 1013,8 hPa 0,0 l/m 4,3 km/h (1 Bft) NO 0,00 h 0,025 mm 0 W/m 4,7 C 7,4 C 6,1 km/h (2 Bft)
14/04/2008 06:00 8,1 C 79 % 1013,2 hPa 0,0 l/m 3,9 km/h (1 Bft) N-NO 0,00 h 0,025 mm 7 W/m 4,7 C 7,9 C 5,8 km/h (1 Bft)
14/04/2008 07:00 8,2 C 82 % 1012,5 hPa 5,0 l/m 4,3 km/h (1 Bft) N 0,00 h 0,025 mm 7 W/m 5,4 C 7,8 C 6,9 km/h (2 Bft)
14/04/2008 08:00 8,0 C 89 % 1012,6 hPa 1,6 l/m 4,5 km/h (1 Bft) E-NE 0,00 h 0,025 mm 21 W/m 6,3 C 7,5 C 6,9 km/h (2 Bft)
14/04/2008 09:00 8,4 C 91 % 1012,3 hPa 2,4 l/m 2,9 km/h (1 Bft) O-NO 0,00 h 0,025 mm 40 W/m 7,1 C 8,2 C 4,9 km/h (1 Bft)
14/04/2008 10:00 9,0 C 93 % 1011,8 hPa 1,4 l/m 3,7 km/h (1 Bft) N-NE 0,00 h 0,025 mm 87 W/m 7,9 C 8,7 C 6,0 km/h (2 Bft)
14/04/2008 11:00 10,6 C 94 % 1011,4 hPa 0,0 l/m 3,4 km/h (1 Bft) E-NE 0,22 h 0,051 mm 347 W/m 9,7 C 10,6 C 5,1 km/h (1 Bft)
14/04/2008 12:00 10,1 C 93 % 1011,1 hPa 0,0 l/m 3,1 km/h (1 Bft) E-NE 0,00 h 0,178 mm 71 W/m 9,0 C 10,1 C 4,5 km/h (1 Bft)
14/04/2008 13:00 11,2 C 91 % 1010,5 hPa 0,2 l/m 3,1 km/h (1 Bft) E-NE 0,55 h 0,051 mm 643 W/m 9,8 C 11,2 C 5,0 km/h (1 Bft)
14/04/2008 14:00 12,9 C 82 % 1009,6 hPa 0,0 l/m 4,3 km/h (1 Bft) NE 0,12 h 0,305 mm 323 W/m 9,9 C 12,9 C 6,6 km/h (2 Bft)
14/04/2008 15:00 14,1 C 76 % 1008,8 hPa 0,0 l/m 8,2 km/h (2 Bft) E 0,60 h 0,203 mm 540 W/m 10,0 C 14,1 C 12,2 km/h (2 Bft)
14/04/2008 16:00 14,1 C 72 % 1008,1 hPa 0,0 l/m 10,5 km/h (2 Bft) E 1,00 h 0,305 mm 601 W/m 9,2 C 14,1 C 15,3 km/h (3 Bft)
14/04/2008 17:00 13,7 C 75 % 1007,7 hPa 0,0 l/m 7,6 km/h (2 Bft) E 1,00 h 0,356 mm 439 W/m 9,4 C 13,7 C 12,2 km/h (2 Bft)
14/04/2008 18:00 12,9 C 76 % 1008,1 hPa 0,0 l/m 6,7 km/h (2 Bft) E 1,00 h 0,254 mm 256 W/m 8,9 C 12,9 C 11,2 km/h (2 Bft)
14/04/2008 19:00 11,8 C 81 % 1008,7 hPa 0,0 l/m 6,9 km/h (2 Bft) E 0,40 h 0,152 mm 70 W/m 8,6 C 11,8 C 11,1 km/h (2 Bft)
14/04/2008 20:00 10,2 C 86 % 1009,6 hPa 0,0 l/m 6,5 km/h (2 Bft) E 0,03 h 0,051 mm 8 W/m 7,9 C 10,1 C 9,8 km/h (2 Bft)
14/04/2008 21:00 9,3 C 87 % 1010,6 hPa 0,0 l/m 4,5 km/h (1 Bft) E 0,00 h 0,025 mm 0 W/m 7,3 C 9,0 C 6,7 km/h (2 Bft)
14/04/2008 22:00 8,7 C 88 % 1011,2 hPa 0,0 l/m 1,4 km/h (1 Bft) E-NE 0,00 h 0,025 mm 0 W/m 6,9 C 8,7 C 2,3 km/h (1 Bft)
14/04/2008 23:00 8,3 C 90 % 1011,4 hPa 0,0 l/m 4,6 km/h (1 Bft) O-NO 0,00 h 0,025 mm 0 W/m 6,7 C 7,9 C 6,0 km/h (2 Bft)
15/04/2008 00:00 7,8 C 91 % 1011,4 hPa 0,0 l/m 7,7 km/h (2 Bft) O-NO 0,00 h 0,025 mm 0 W/m 6,4 C 6,5 C 9,8 km/h (2 Bft)
15/04/2008 01:00 7,3 C 91 % 1011,0 hPa 0,0 l/m 5,5 km/h (1 Bft) O-NO 0,00 h 0,025 mm 0 W/m 6,0 C 6,6 C 7,2 km/h (2 Bft)
15/04/2008 02:00 7,1 C 92 % 1010,5 hPa 0,0 l/m 4,2 km/h (1 Bft) O-NO 0,00 h 0,025 mm 0 W/m 5,9 C 6,7 C 6,1 km/h (2 Bft)
15/04/2008 03:00 6,8 C 92 % 1009,9 hPa 0,0 l/m 3,8 km/h (1 Bft) O-NO 0,00 h 0,000 mm 0 W/m 5,6 C 6,6 C 5,4 km/h (1 Bft)
15/04/2008 04:00 6,5 C 92 % 1009,6 hPa 0,0 l/m 3,4 km/h (1 Bft) O-NO 0,00 h 0,000 mm 0 W/m 5,3 C 6,3 C 5,0 km/h (1 Bft)
15/04/2008 05:00 6,4 C 92 % 1009,3 hPa 0,0 l/m 1,8 km/h (1 Bft) O-NO 0,00 h 0,000 mm 0 W/m 5,2 C 6,3 C 2,9 km/h (1 Bft)
15/04/2008 06:00 6,7 C 92 % 1009,4 hPa 0,2 l/m 2,5 km/h (1 Bft) O-NO 0,00 h 0,000 mm 7 W/m 5,4 C 6,5 C 3,6 km/h (1 Bft)
15/04/2008 07:00 7,1 C 91 % 1009,8 hPa 0,0 l/m 3,4 km/h (1 Bft) O-NO 0,00 h 0,000 mm 28 W/m 5,8 C 6,9 C 4,9 km/h (1 Bft)
15/04/2008 08:00 8,6 C 89 % 1010,2 hPa 0,0 l/m 0,3 km/h (0 Bft) O-NO 0,37 h 0,025 mm 154 W/m 6,9 C 8,6 C 1,0 km/h (0 Bft)
15/04/2008 09:00 11,5 C 73 % 1010,4 hPa 0,0 l/m 3,1 km/h (1 Bft) E 1,00 h 0,076 mm 430 W/m 6,7 C 11,5 C 5,6 km/h (1 Bft)
15/04/2008 10:00 13,0 C 61 % 1010,8 hPa 0,0 l/m 2,3 km/h (1 Bft) E 1,00 h 0,229 mm 599 W/m 5,7 C 13,0 C 4,9 km/h (1 Bft)
15/04/2008 11:00 15,4 C 56 % 1010,8 hPa 0,0 l/m 6,2 km/h (2 Bft) E 1,00 h 0,305 mm 729 W/m 6,7 C 15,4 C 10,1 km/h (2 Bft)
15/04/2008 12:00 16,5 C 50 % 1011,0 hPa 0,0 l/m 9,9 km/h (2 Bft) E 1,00 h 0,432 mm 822 W/m 6,0 C 16,5 C 14,6 km/h (3 Bft)
15/04/2008 13:00 16,4 C 46 % 1011,2 hPa 0,0 l/m 9,4 km/h (2 Bft) E 1,00 h 0,508 mm 866 W/m 4,6 C 16,4 C 14,1 km/h (3 Bft)
15/04/2008 14:00 16,8 C 49 % 1011,0 hPa 0,0 l/m 11,2 km/h (2 Bft) E 1,00 h 0,533 mm 823 W/m 6,1 C 16,8 C 15,8 km/h (3 Bft)
15/04/2008 15:00 17,1 C 53 % 1010,8 hPa 0,0 l/m 7,6 km/h (2 Bft) E 1,00 h 0,533 mm 743 W/m 7,4 C 17,1 C 11,2 km/h (2 Bft)
15/04/2008 16:00 17,9 C 46 % 1010,2 hPa 0,0 l/m 9,0 km/h (2 Bft) E-NE 1,00 h 0,457 mm 610 W/m 6,1 C 17,9 C 13,6 km/h (3 Bft)
15/04/2008 17:00 17,8 C 49 % 1010,1 hPa 0,0 l/m 9,1 km/h (2 Bft) E-NE 1,00 h 0,406 mm 446 W/m 6,9 C 17,8 C 12,9 km/h (3 Bft)
15/04/2008 18:00 16,7 C 50 % 1010,3 hPa 0,0 l/m 7,1 km/h (2 Bft) E-NE 1,00 h 0,305 mm 258 W/m 6,2 C 16,7 C 10,1 km/h (2 Bft)
15/04/2008 19:00 15,1 C 52 % 1010,8 hPa 0,0 l/m 3,2 km/h (1 Bft) E-NE 0,50 h 0,203 mm 75 W/m 5,3 C 15,1 C 5,1 km/h (1 Bft)
15/04/2008 20:00 12,8 C 58 % 1011,5 hPa 0,0 l/m 5,3 km/h (1 Bft) E-SE 0,03 h 0,076 mm 9 W/m 4,7 C 12,8 C 7,2 km/h (2 Bft)
15/04/2008 21:00 11,7 C 60 % 1012,4 hPa 0,0 l/m 6,5 km/h (2 Bft) O 0,00 h 0,025 mm 0 W/m 4,1 C 11,7 C 9,1 km/h (2 Bft)
15/04/2008 22:00 11,3 C 47 % 1012,9 hPa 0,0 l/m 5,9 km/h (2 Bft) N-NO 0,00 h 0,051 mm 0 W/m 0,3 C 11,3 C 9,4 km/h (2 Bft)
15/04/2008 23:00 11,3 C 42 % 1013,3 hPa 0,0 l/m 7,4 km/h (2 Bft) S 0,00 h 0,076 mm 0 W/m -1,2 C 11,3 C 10,0 km/h (2 Bft)
16/04/2008 00:00 10,7 C 40 % 1013,8 hPa 0,0 l/m 4,1 km/h (1 Bft) S 0,00 h 0,076 mm 0 W/m -2,2 C 10,7 C 5,3 km/h (1 Bft)
16/04/2008 01:00 9,5 C 44 % 1013,9 hPa 0,0 l/m 4,0 km/h (1 Bft) NO 0,00 h 0,051 mm 0 W/m -2,1 C 9,2 C 5,9 km/h (2 Bft)
16/04/2008 02:00 9,3 C 43 % 1013,6 hPa 0,0 l/m 2,6 km/h (1 Bft) O-NO 0,00 h 0,051 mm 0 W/m -2,5 C 9,2 C 3,8 km/h (1 Bft)
16/04/2008 03:00 9,0 C 43 % 1013,3 hPa 0,0 l/m 4,5 km/h (1 Bft) O-NO 0,00 h 0,051 mm 0 W/m -3,0 C 8,7 C 6,1 km/h (2 Bft)
16/04/2008 04:00 8,5 C 44 % 1013,2 hPa 0,0 l/m 3,4 km/h (1 Bft) O-NO 0,00 h 0,051 mm 0 W/m -3,1 C 8,3 C 4,8 km/h (1 Bft)
16/04/2008 05:00 7,3 C 49 % 1013,0 hPa 0,0 l/m 4,4 km/h (1 Bft) O-SO 0,00 h 0,051 mm 0 W/m -2,6 C 6,6 C 5,9 km/h (2 Bft)
16/04/2008 06:00 7,3 C 50 % 1012,5 hPa 0,0 l/m 6,3 km/h (2 Bft) N-NO 0,05 h 0,051 mm 11 W/m -2,4 C 6,3 C 9,1 km/h (2 Bft)
16/04/2008 07:00 8,6 C 47 % 1012,6 hPa 0,0 l/m 2,2 km/h (1 Bft) NO 0,22 h 0,051 mm 53 W/m -2,1 C 8,5 C 3,8 km/h (1 Bft)
16/04/2008 08:00 9,7 C 50 % 1013,1 hPa 0,0 l/m 1,6 km/h (1 Bft) NO 0,32 h 0,051 mm 160 W/m -0,3 C 9,7 C 2,9 km/h (1 Bft)
16/04/2008 09:00 12,8 C 44 % 1013,0 hPa 0,0 l/m 3,9 km/h (1 Bft) S 1,00 h 0,102 mm 438 W/m 0,9 C 12,8 C 6,3 km/h (2 Bft)
16/04/2008 10:00 14,8 C 38 % 1013,1 hPa 0,0 l/m 6,2 km/h (2 Bft) E 1,00 h 0,254 mm 602 W/m 0,4 C 14,8 C 9,8 km/h (2 Bft)
16/04/2008 11:00 15,0 C 54 % 1013,1 hPa 0,0 l/m 6,9 km/h (2 Bft) S 1,00 h 0,356 mm 701 W/m 5,7 C 15,0 C 11,6 km/h (2 Bft)
16/04/2008 12:00 15,4 C 66 % 1012,8 hPa 0,0 l/m 10,2 km/h (2 Bft) E 1,00 h 0,406 mm 779 W/m 9,0 C 15,4 C 16,7 km/h (3 Bft)
16/04/2008 13:00 15,8 C 66 % 1012,0 hPa 0,0 l/m 11,1 km/h (2 Bft) E 1,00 h 0,457 mm 816 W/m 9,4 C 15,8 C 17,4 km/h (3 Bft)
16/04/2008 14:00 15,7 C 66 % 1011,5 hPa 0,0 l/m 11,1 km/h (2 Bft) E 1,00 h 0,483 mm 743 W/m 9,3 C 15,7 C 17,3 km/h (3 Bft)
16/04/2008 15:00 15,1 C 57 % 1011,2 hPa 0,0 l/m 6,7 km/h (2 Bft) E 1,00 h 0,432 mm 544 W/m 6,6 C 15,1 C 10,8 km/h (2 Bft)
16/04/2008 16:00 14,4 C 56 % 1010,5 hPa 0,0 l/m 6,7 km/h (2 Bft) S-SE 0,78 h 0,330 mm 358 W/m 5,8 C 14,4 C 11,1 km/h (2 Bft)
16/04/2008 17:00 14,0 C 56 % 1010,2 hPa 0,0 l/m 6,4 km/h (2 Bft) E 0,02 h 0,229 mm 238 W/m 5,3 C 14,0 C 9,9 km/h (2 Bft)
16/04/2008 18:00 13,2 C 65 % 1010,1 hPa 0,0 l/m 6,0 km/h (2 Bft) E-NE 0,00 h 0,152 mm 115 W/m 6,6 C 13,2 C 8,5 km/h (2 Bft)
16/04/2008 19:00 12,0 C 70 % 1009,7 hPa 0,0 l/m 6,3 km/h (2 Bft) NE 0,00 h 0,102 mm 42 W/m 6,7 C 12,0 C 8,7 km/h (2 Bft)
16/04/2008 20:00 10,8 C 74 % 1009,7 hPa 0,0 l/m 4,1 km/h (1 Bft) NE 0,00 h 0,051 mm 8 W/m 6,3 C 10,8 C 6,0 km/h (2 Bft)
16/04/2008 21:00 10,0 C 76 % 1009,7 hPa 0,0 l/m 1,9 km/h (1 Bft) NE 0,00 h 0,025 mm 0 W/m 6,0 C 10,0 C 3,1 km/h (1 Bft)
16/04/2008 22:00 9,5 C 78 % 1009,7 hPa 0,0 l/m 4,8 km/h (1 Bft) O 0,00 h 0,025 mm 0 W/m 5,8 C 9,1 C 6,1 km/h (2 Bft)
16/04/2008 23:00 9,1 C 77 % 1009,2 hPa 0,0 l/m 8,2 km/h (2 Bft) O 0,00 h 0,025 mm 0 W/m 5,3 C 8,0 C 11,5 km/h (2 Bft)
17/04/2008 00:00 8,8 C 77 % 1009,1 hPa 0,0 l/m 7,0 km/h (2 Bft) O-NO 0,00 h 0,000 mm 0 W/m 5,0 C 7,9 C 8,8 km/h (2 Bft)
17/04/2008 01:00 8,5 C 75 % 1008,7 hPa 0,0 l/m 3,5 km/h (1 Bft) O-NO 0,00 h 0,025 mm 0 W/m 4,3 C 8,3 C 5,0 km/h (1 Bft)
17/04/2008 02:00 8,2 C 74 % 1008,4 hPa 0,0 l/m 2,8 km/h (1 Bft) O-NO 0,00 h 0,025 mm 0 W/m 3,9 C 8,1 C 4,1 km/h (1 Bft)
17/04/2008 03:00 7,4 C 75 % 1007,8 hPa 0,0 l/m 1,2 km/h (1 Bft) O-NO 0,00 h 0,025 mm 0 W/m 3,3 C 7,4 C 2,4 km/h (1 Bft)
17/04/2008 04:00 7,0 C 76 % 1007,2 hPa 0,0 l/m 1,8 km/h (1 Bft) O-NO 0,00 h 0,025 mm 0 W/m 3,1 C 7,0 C 3,9 km/h (1 Bft)
17/04/2008 05:00 6,6 C 79 % 1006,5 hPa 0,0 l/m 3,1 km/h (1 Bft) O-NO 0,00 h 0,025 mm 0 W/m 3,2 C 6,3 C 5,4 km/h (1 Bft)
17/04/2008 06:00 7,0 C 81 % 1006,1 hPa 0,0 l/m 2,9 km/h (1 Bft) NO 0,05 h 0,025 mm 9 W/m 4,0 C 6,9 C 5,4 km/h (1 Bft)
17/04/2008 07:00 7,2 C 82 % 1006,1 hPa 0,0 l/m 1,3 km/h (1 Bft) NO 0,05 h 0,000 mm 44 W/m 4,4 C 7,2 C 2,9 km/h (1 Bft)
17/04/2008 08:00 9,4 C 76 % 1006,0 hPa 0,0 l/m 4,9 km/h (1 Bft) NO 0,38 h 0,025 mm 174 W/m 5,3 C 9,3 C 7,6 km/h (2 Bft)
17/04/2008 09:00 12,1 C 69 % 1005,6 hPa 0,0 l/m 7,7 km/h (2 Bft) NE 0,68 h 0,102 mm 357 W/m 6,6 C 12,1 C 11,7 km/h (2 Bft)
17/04/2008 10:00 13,6 C 69 % 1005,1 hPa 0,0 l/m 13,2 km/h (3 Bft) E-NE 0,83 h 0,203 mm 482 W/m 8,1 C 13,6 C 18,2 km/h (3 Bft)
17/04/2008 11:00 14,0 C 63 % 1004,5 hPa 0,0 l/m 13,3 km/h (3 Bft) E-NE 0,42 h 0,279 mm 367 W/m 7,1 C 14,0 C 18,2 km/h (3 Bft)
17/04/2008 12:00 14,6 C 63 % 1004,1 hPa 0,0 l/m 13,5 km/h (3 Bft) E-NE 0,72 h 0,254 mm 590 W/m 7,7 C 14,6 C 19,0 km/h (3 Bft)
17/04/2008 13:00 15,9 C 61 % 1003,1 hPa 0,0 l/m 16,4 km/h (3 Bft) E-NE 0,97 h 0,381 mm 733 W/m 8,4 C 15,9 C 22,8 km/h (4 Bft)
17/04/2008 14:00 16,0 C 63 % 1002,3 hPa 0,0 l/m 20,8 km/h (4 Bft) E-NE 0,78 h 0,483 mm 639 W/m 9,0 C 16,0 C 28,3 km/h (4 Bft)
17/04/2008 15:00 14,2 C 72 % 1002,0 hPa 0,0 l/m 20,1 km/h (4 Bft) E 0,00 h 0,432 mm 290 W/m 9,3 C 14,2 C 27,9 km/h (4 Bft)
17/04/2008 16:00 13,7 C 80 % 1001,4 hPa 0,0 l/m 20,6 km/h (4 Bft) E-NE 0,00 h 0,229 mm 137 W/m 10,2 C 13,7 C 28,2 km/h (4 Bft)
17/04/2008 17:00 13,5 C 83 % 1000,6 hPa 0,0 l/m 22,1 km/h (4 Bft) E-NE 0,00 h 0,127 mm 127 W/m 10,7 C 13,5 C 30,5 km/h (5 Bft)
17/04/2008 18:00 13,3 C 81 % 999,8 hPa 0,0 l/m 21,4 km/h (4 Bft) E-NE 0,00 h 0,127 mm 47 W/m 10,1 C 13,3 C 29,5 km/h (5 Bft)
17/04/2008 19:00 12,3 C 87 % 999,5 hPa 1,2 l/m 14,2 km/h (3 Bft) NE 0,00 h 0,076 mm 9 W/m 10,2 C 12,3 C 20,0 km/h (4 Bft)
17/04/2008 20:00 11,6 C 91 % 999,7 hPa 2,8 l/m 12,7 km/h (3 Bft) E-NE 0,00 h 0,025 mm 0 W/m 10,1 C 11,6 C 18,0 km/h (3 Bft)
17/04/2008 21:00 10,5 C 93 % 999,4 hPa 3,2 l/m 4,4 km/h (1 Bft) NE 0,00 h 0,025 mm 0 W/m 9,4 C 10,5 C 6,7 km/h (2 Bft)
17/04/2008 22:00 9,5 C 93 % 998,8 hPa 0,6 l/m 3,8 km/h (1 Bft) N 0,00 h 0,025 mm 0 W/m 8,4 C 9,3 C 6,4 km/h (2 Bft)
17/04/2008 23:00 9,3 C 94 % 997,7 hPa 1,8 l/m 4,8 km/h (1 Bft) N 0,00 h 0,000 mm 0 W/m 8,4 C 8,9 C 8,0 km/h (2 Bft)
18/04/2008 00:00 9,3 C 94 % 996,6 hPa 4,6 l/m 5,5 km/h (1 Bft) NE 0,00 h 0,000 mm 0 W/m 8,5 C 8,8 C 8,6 km/h (2 Bft)
18/04/2008 01:00 9,2 C 95 % 996,6 hPa 1,2 l/m 9,5 km/h (2 Bft) NE 0,00 h 0,025 mm 0 W/m 8,4 C 7,8 C 13,7 km/h (3 Bft)
18/04/2008 02:00 9,2 C 95 % 996,6 hPa 1,4 l/m 4,9 km/h (1 Bft) N 0,00 h 0,025 mm 0 W/m 8,5 C 8,8 C 7,4 km/h (2 Bft)
18/04/2008 03:00 9,5 C 96 % 996,4 hPa 0,0 l/m 3,6 km/h (1 Bft) N 0,00 h 0,000 mm 0 W/m 8,9 C 9,4 C 6,0 km/h (2 Bft)
18/04/2008 04:00 9,2 C 96 % 996,8 hPa 0,0 l/m 3,8 km/h (1 Bft) N 0,00 h 0,000 mm 0 W/m 8,6 C 9,0 C 6,4 km/h (2 Bft)
18/04/2008 05:00 9,0 C 96 % 997,2 hPa 0,4 l/m 5,9 km/h (2 Bft) NE 0,00 h 0,000 mm 0 W/m 8,4 C 8,3 C 8,7 km/h (2 Bft)
18/04/2008 06:00 8,7 C 96 % 997,4 hPa 0,2 l/m 3,8 km/h (1 Bft) N-NE 0,00 h 0,000 mm 8 W/m 8,1 C 8,5 C 6,0 km/h (2 Bft)
18/04/2008 07:00 9,0 C 97 % 998,0 hPa 0,0 l/m 3,5 km/h (1 Bft) NE 0,25 h 0,000 mm 62 W/m 8,5 C 8,8 C 5,0 km/h (1 Bft)
18/04/2008 08:00 9,8 C 97 % 998,7 hPa 0,0 l/m 5,2 km/h (1 Bft) E-NE 0,13 h 0,025 mm 141 W/m 9,3 C 9,6 C 7,8 km/h (2 Bft)
18/04/2008 09:00 11,8 C 90 % 999,4 hPa 0,0 l/m 9,1 km/h (2 Bft) NE 0,75 h 0,076 mm 419 W/m 10,1 C 11,8 C 13,3 km/h (3 Bft)
18/04/2008 10:00 13,2 C 80 % 999,5 hPa 0,0 l/m 10,6 km/h (2 Bft) E-NE 0,57 h 0,229 mm 384 W/m 9,9 C 13,2 C 14,8 km/h (3 Bft)
18/04/2008 11:00 13,9 C 78 % 999,6 hPa 0,0 l/m 11,3 km/h (2 Bft) E-NE 0,43 h 0,229 mm 503 W/m 10,1 C 13,9 C 16,5 km/h (3 Bft)
18/04/2008 12:00 13,9 C 79 % 999,8 hPa 0,0 l/m 9,3 km/h (2 Bft) E 0,90 h 0,279 mm 528 W/m 10,4 C 13,9 C 15,9 km/h (3 Bft)
18/04/2008 13:00 13,6 C 82 % 1000,0 hPa 0,0 l/m 12,1 km/h (2 Bft) E 0,22 h 0,305 mm 372 W/m 10,6 C 13,6 C 17,6 km/h (3 Bft)
18/04/2008 14:00 12,3 C 89 % 1000,2 hPa 0,0 l/m 10,4 km/h (2 Bft) E 0,00 h 0,229 mm 128 W/m 10,5 C 12,3 C 14,8 km/h (3 Bft)
18/04/2008 15:00 12,2 C 92 % 999,6 hPa 0,2 l/m 9,0 km/h (2 Bft) NE 0,00 h 0,076 mm 200 W/m 10,9 C 12,2 C 14,1 km/h (3 Bft)
18/04/2008 16:00 12,1 C 89 % 998,3 hPa 0,0 l/m 11,8 km/h (2 Bft) E-NE 0,00 h 0,102 mm 108 W/m 10,4 C 12,1 C 17,0 km/h (3 Bft)
18/04/2008 17:00 11,7 C 90 % 997,6 hPa 1,0 l/m 10,9 km/h (2 Bft) E-NE 0,00 h 0,076 mm 52 W/m 10,2 C 11,7 C 16,0 km/h (3 Bft)
18/04/2008 18:00 10,6 C 93 % 996,0 hPa 3,6 l/m 14,5 km/h (3 Bft) N-NE 0,00 h 0,051 mm 19 W/m 9,5 C 10,3 C 21,6 km/h (4 Bft)
18/04/2008 19:00 9,4 C 94 % 994,6 hPa 8,4 l/m 7,4 km/h (2 Bft) N 0,00 h 0,025 mm 0 W/m 8,5 C 8,5 C 13,5 km/h (3 Bft)
18/04/2008 20:00 9,0 C 95 % 995,5 hPa 5,0 l/m 6,7 km/h (2 Bft) O-SO 0,00 h 0,000 mm 0 W/m 8,2 C 8,2 C 9,7 km/h (2 Bft)
18/04/2008 21:00 8,9 C 95 % 996,0 hPa 0,4 l/m 4,3 km/h (1 Bft) N 0,00 h 0,000 mm 0 W/m 8,1 C 8,5 C 7,0 km/h (2 Bft)
18/04/2008 22:00 8,8 C 95 % 995,6 hPa 0,2 l/m 3,2 km/h (1 Bft) E-NE 0,00 h 0,000 mm 0 W/m 8,0 C 8,5 C 4,6 km/h (1 Bft)
18/04/2008 23:00 9,1 C 96 % 995,8 hPa 3,0 l/m 3,7 km/h (1 Bft) O-SO 0,00 h 0,000 mm 0 W/m 8,4 C 8,7 C 5,6 km/h (1 Bft)
19/04/2008 00:00 9,0 C 96 % 996,0 hPa 0,0 l/m 4,3 km/h (1 Bft) NO 0,00 h 0,000 mm 0 W/m 8,4 C 8,7 C 6,6 km/h (2 Bft)
19/04/2008 01:00 8,9 C 96 % 996,3 hPa 0,0 l/m 3,2 km/h (1 Bft) E-SE 0,00 h 0,000 mm 0 W/m 8,3 C 8,7 C 4,7 km/h (1 Bft)
19/04/2008 02:00 8,7 C 96 % 996,8 hPa 0,2 l/m 2,3 km/h (1 Bft) O-SO 0,00 h 0,000 mm 0 W/m 8,1 C 8,5 C 3,2 km/h (1 Bft)
19/04/2008 03:00 8,5 C 96 % 997,0 hPa 0,0 l/m 3,6 km/h (1 Bft) O 0,00 h 0,000 mm 0 W/m 8,0 C 8,1 C 5,2 km/h (1 Bft)
19/04/2008 04:00 8,6 C 97 % 997,3 hPa 0,0 l/m 3,7 km/h (1 Bft) O-NO 0,00 h 0,000 mm 0 W/m 8,1 C 8,3 C 5,1 km/h (1 Bft)
19/04/2008 05:00 7,8 C 97 % 998,0 hPa 0,0 l/m 11,5 km/h (2 Bft) O-SO 0,00 h 0,000 mm 0 W/m 7,2 C 5,8 C 15,7 km/h (3 Bft)
19/04/2008 06:00 7,1 C 96 % 998,4 hPa 0,0 l/m 5,8 km/h (1 Bft) O-NO 0,03 h 0,025 mm 9 W/m 6,5 C 6,1 C 9,1 km/h (2 Bft)
19/04/2008 07:00 7,4 C 96 % 999,0 hPa 0,0 l/m 6,1 km/h (2 Bft) O 0,23 h 0,000 mm 52 W/m 6,9 C 6,5 C 9,1 km/h (2 Bft)
19/04/2008 08:00 8,7 C 95 % 1000,1 hPa 0,0 l/m 1,8 km/h (1 Bft) SO 0,38 h 0,025 mm 162 W/m 8,0 C 8,6 C 3,2 km/h (1 Bft)
19/04/2008 09:00 11,7 C 84 % 1001,2 hPa 0,0 l/m 3,3 km/h (1 Bft) S 1,00 h 0,076 mm 445 W/m 9,0 C 11,7 C 5,7 km/h (1 Bft)
19/04/2008 10:00 14,1 C 68 % 1002,1 hPa 0,0 l/m 13,7 km/h (3 Bft) SO 1,00 h 0,229 mm 608 W/m 8,3 C 14,1 C 18,6 km/h (3 Bft)
19/04/2008 11:00 16,7 C 55 % 1002,6 hPa 0,0 l/m 21,4 km/h (4 Bft) SO 1,00 h 0,381 mm 738 W/m 7,6 C 16,7 C 28,4 km/h (4 Bft)
19/04/2008 12:00 18,1 C 45 % 1002,6 hPa 0,0 l/m 23,4 km/h (4 Bft) SO 1,00 h 0,533 mm 806 W/m 6,1 C 18,1 C 31,3 km/h (5 Bft)
19/04/2008 13:00 18,8 C 42 % 1002,6 hPa 0,0 l/m 22,6 km/h (4 Bft) SO 1,00 h 0,635 mm 835 W/m 5,7 C 18,8 C 29,9 km/h (5 Bft)
19/04/2008 14:00 18,4 C 48 % 1002,6 hPa 0,0 l/m 25,5 km/h (4 Bft) S 1,00 h 0,635 mm 761 W/m 7,2 C 18,4 C 33,8 km/h (5 Bft)
19/04/2008 15:00 18,4 C 44 % 1002,6 hPa 0,0 l/m 24,4 km/h (4 Bft) S 1,00 h 0,610 mm 739 W/m 5,9 C 18,4 C 32,7 km/h (5 Bft)
19/04/2008 16:00 17,7 C 44 % 1002,4 hPa 0,0 l/m 22,0 km/h (4 Bft) S 0,75 h 0,610 mm 518 W/m 5,3 C 17,7 C 29,3 km/h (5 Bft)
19/04/2008 17:00 17,0 C 48 % 1002,4 hPa 0,0 l/m 19,1 km/h (3 Bft) S 0,90 h 0,457 mm 435 W/m 5,7 C 17,0 C 25,5 km/h (4 Bft)
19/04/2008 18:00 16,0 C 55 % 1002,7 hPa 0,0 l/m 12,5 km/h (3 Bft) S 0,65 h 0,381 mm 221 W/m 7,0 C 16,0 C 16,4 km/h (3 Bft)
19/04/2008 19:00 14,9 C 67 % 1002,9 hPa 0,0 l/m 5,5 km/h (1 Bft) S-SE 0,67 h 0,203 mm 93 W/m 8,9 C 14,9 C 8,2 km/h (2 Bft)
19/04/2008 20:00 12,4 C 82 % 1003,7 hPa 0,0 l/m 1,4 km/h (1 Bft) S-SE 0,00 h 0,076 mm 8 W/m 9,3 C 12,4 C 2,8 km/h (1 Bft)
19/04/2008 21:00 11,5 C 88 % 1004,2 hPa 0,0 l/m 3,5 km/h (1 Bft) N-NE 0,00 h 0,000 mm 0 W/m 9,5 C 11,5 C 5,9 km/h (2 Bft)
19/04/2008 22:00 11,2 C 90 % 1004,7 hPa 0,0 l/m 1,2 km/h (1 Bft) N 0,00 h 0,025 mm 0 W/m 9,6 C 11,2 C 3,1 km/h (1 Bft)
19/04/2008 23:00 10,5 C 90 % 1004,8 hPa 0,0 l/m 1,3 km/h (1 Bft) N-NE 0,00 h 0,025 mm 0 W/m 9,0 C 10,5 C 2,9 km/h (1 Bft)
20/04/2008 00:00 9,8 C 91 % 1005,2 hPa 0,0 l/m 2,6 km/h (1 Bft) O-NO 0,00 h 0,000 mm 0 W/m 8,4 C 9,7 C 4,2 km/h (1 Bft)
20/04/2008 01:00 9,2 C 91 % 1005,3 hPa 0,0 l/m 3,9 km/h (1 Bft) O-NO 0,00 h 0,025 mm 0 W/m 7,9 C 9,0 C 5,3 km/h (1 Bft)
20/04/2008 02:00 9,1 C 92 % 1005,2 hPa 0,0 l/m 5,3 km/h (1 Bft) O-NO 0,00 h 0,025 mm 0 W/m 7,8 C 8,6 C 7,1 km/h (2 Bft)
20/04/2008 03:00 8,6 C 91 % 1004,9 hPa 0,0 l/m 4,8 km/h (1 Bft) O-NO 0,00 h 0,025 mm 0 W/m 7,2 C 8,1 C 6,8 km/h (2 Bft)
20/04/2008 04:00 8,7 C 90 % 1004,7 hPa 0,0 l/m 1,9 km/h (1 Bft) O-NO 0,00 h 0,025 mm 0 W/m 7,2 C 8,7 C 3,0 km/h (1 Bft)
20/04/2008 05:00 8,4 C 89 % 1004,4 hPa 0,0 l/m 4,2 km/h (1 Bft) O-NO 0,00 h 0,000 mm 0 W/m 6,8 C 8,1 C 6,7 km/h (2 Bft)
20/04/2008 06:00 8,5 C 86 % 1004,3 hPa 0,2 l/m 2,6 km/h (1 Bft) NO 0,03 h 0,025 mm 10 W/m 6,3 C 8,4 C 3,8 km/h (1 Bft)
20/04/2008 07:00 9,1 C 81 % 1004,8 hPa 0,0 l/m 0,2 km/h (0 Bft) NO 0,08 h 0,000 mm 52 W/m 5,9 C 9,1 C 0,7 km/h (0 Bft)
20/04/2008 08:00 10,9 C 76 % 1005,7 hPa 0,0 l/m 3,0 km/h (1 Bft) E-NE 0,40 h 0,025 mm 162 W/m 6,8 C 10,9 C 4,9 km/h (1 Bft)
20/04/2008 09:00 14,0 C 74 % 1006,2 hPa 0,0 l/m 6,4 km/h (2 Bft) NE 0,97 h 0,102 mm 441 W/m 9,4 C 14,0 C 9,5 km/h (2 Bft)
20/04/2008 10:00 15,6 C 70 % 1006,5 hPa 0,0 l/m 9,7 km/h (2 Bft) E-NE 0,93 h 0,254 mm 586 W/m 10,1 C 15,6 C 14,2 km/h (3 Bft)
20/04/2008 11:00 16,7 C 68 % 1006,4 hPa 0,0 l/m 10,6 km/h (2 Bft) E-NE 0,97 h 0,356 mm 722 W/m 10,7 C 16,7 C 15,6 km/h (3 Bft)
20/04/2008 12:00 16,8 C 68 % 1006,2 hPa 0,0 l/m 9,3 km/h (2 Bft) E 1,00 h 0,432 mm 776 W/m 10,8 C 16,8 C 15,9 km/h (3 Bft)
20/04/2008 13:00 15,3 C 78 % 1006,1 hPa 0,0 l/m 8,0 km/h (2 Bft) E 0,38 h 0,457 mm 436 W/m 11,5 C 15,3 C 13,6 km/h (3 Bft)
20/04/2008 14:00 13,5 C 86 % 1006,5 hPa 0,0 l/m 9,8 km/h (2 Bft) E 0,00 h 0,254 mm 79 W/m 11,2 C 13,5 C 14,5 km/h (3 Bft)
20/04/2008 15:00 13,0 C 91 % 1006,8 hPa 0,6 l/m 4,5 km/h (1 Bft) E-NE 0,00 h 0,076 mm 57 W/m 11,5 C 13,0 C 6,6 km/h (2 Bft)
20/04/2008 16:00 12,6 C 93 % 1006,3 hPa 0,6 l/m 5,3 km/h (1 Bft) N-NE 0,00 h 0,025 mm 83 W/m 11,6 C 12,6 C 8,3 km/h (2 Bft)
20/04/2008 17:00 11,5 C 94 % 1005,6 hPa 1,0 l/m 5,1 km/h (1 Bft) N 0,00 h 0,051 mm 51 W/m 10,6 C 11,5 C 8,4 km/h (2 Bft)
20/04/2008 18:00 10,3 C 94 % 1004,9 hPa 1,2 l/m 6,3 km/h (2 Bft) N 0,00 h 0,025 mm 30 W/m 9,4 C 10,3 C 10,5 km/h (2 Bft)
20/04/2008 19:00 10,0 C 94 % 1004,5 hPa 1,0 l/m 5,5 km/h (1 Bft) E-NE 0,00 h 0,025 mm 13 W/m 9,1 C 9,8 C 8,0 km/h (2 Bft)
20/04/2008 20:00 10,1 C 94 % 1004,4 hPa 2,0 l/m 0,6 km/h (0 Bft) NE 0,00 h 0,025 mm 0 W/m 9,3 C 10,1 C 1,1 km/h (0 Bft)
20/04/2008 21:00 9,7 C 95 % 1004,1 hPa 0,8 l/m 1,5 km/h (1 Bft) N-NO 0,00 h 0,000 mm 0 W/m 9,0 C 9,7 C 2,9 km/h (1 Bft)
20/04/2008 22:00 9,5 C 95 % 1003,4 hPa 1,4 l/m 8,3 km/h (2 Bft) O 0,00 h 0,000 mm 0 W/m 8,7 C 8,4 C 11,3 km/h (2 Bft)
20/04/2008 23:00 9,7 C 95 % 1003,6 hPa 2,0 l/m 7,9 km/h (2 Bft) O-SO 0,00 h 0,025 mm 0 W/m 8,9 C 8,7 C 11,8 km/h (2 Bft)
Min-Date _ 15/04/08 16/04/08 18/04/08 - 14/04/08 - - - - 16/04/08 19/04/08 14/04/08
_ Min-Heure 05:03 10:25 19:00 - 01:12 - - - - 03:54 05:41 01:16
Minimum _ 6,2 C 31 % 994,3 hPa - 0,0 km/h (0 Bft) - - - - -3,4 C 4,3 C 0,0 km/h (0 Bft)
Max-Date _ 19/04/08 18/04/08 14/04/08 18/04/08 19/04/08 - 14/04/08 19/04/08 14/04/08 20/04/08 19/04/08 19/04/08
_ Max-Heure 13:44 08:48 00:15 19:00 12:16 - 11:09 13:00 13:49 13:04 13:44 12:16
Maximum _ 19,4 C 98 % 1016,3 hPa 8,4 l/m 35,4 km/h
SO (5 Bft)
- 0,02 h 0,635 mm 1136 W/m 12,5 C 19,4 C 48,3 km/h
SO (6 Bft)
Moyenne _ 11,3 C 77 % 1006,0 hPa #61,0 l/m 7,0 km/h (2 Bft) E-NE #47:43 h #22,362 mm 322 W/m 6,9 C 11,1 C 10,2 km/h (2 Bft)
Roquefort les pins